sensor_id;sensor_type;location;lat;lon;timestamp;P1;durP1;ratioP1;P2;durP2;ratioP2
22034;SDS011;11181;51.002;4.356;2023-01-20T00:02:17;34.00;;;16.63;;
22034;SDS011;11181;51.002;4.356;2023-01-20T00:04:47;32.50;;;14.43;;
22034;SDS011;11181;51.002;4.356;2023-01-20T00:07:14;34.90;;;16.13;;
22034;SDS011;11181;51.002;4.356;2023-01-20T00:09:41;35.43;;;16.97;;
22034;SDS011;11181;51.002;4.356;2023-01-20T00:12:08;34.90;;;15.40;;
22034;SDS011;11181;51.002;4.356;2023-01-20T00:14:35;38.90;;;17.93;;
22034;SDS011;11181;51.002;4.356;2023-01-20T00:17:02;33.67;;;15.23;;
22034;SDS011;11181;51.002;4.356;2023-01-20T00:19:29;35.83;;;16.17;;
22034;SDS011;11181;51.002;4.356;2023-01-20T00:21:57;32.90;;;15.73;;
22034;SDS011;11181;51.002;4.356;2023-01-20T00:24:24;38.07;;;16.83;;
22034;SDS011;11181;51.002;4.356;2023-01-20T00:26:51;29.97;;;15.60;;
22034;SDS011;11181;51.002;4.356;2023-01-20T00:29:18;33.07;;;15.47;;
22034;SDS011;11181;51.002;4.356;2023-01-20T00:31:45;32.77;;;15.23;;
22034;SDS011;11181;51.002;4.356;2023-01-20T00:34:12;34.77;;;17.00;;
22034;SDS011;11181;51.002;4.356;2023-01-20T00:36:39;37.53;;;15.63;;
22034;SDS011;11181;51.002;4.356;2023-01-20T00:39:07;28.70;;;14.63;;
22034;SDS011;11181;51.002;4.356;2023-01-20T00:41:34;35.40;;;14.47;;
22034;SDS011;11181;51.002;4.356;2023-01-20T00:44:01;34.63;;;15.67;;
22034;SDS011;11181;51.002;4.356;2023-01-20T00:46:28;33.80;;;15.20;;
22034;SDS011;11181;51.002;4.356;2023-01-20T00:48:55;30.90;;;16.30;;
22034;SDS011;11181;51.002;4.356;2023-01-20T00:51:22;33.33;;;15.87;;
22034;SDS011;11181;51.002;4.356;2023-01-20T00:53:49;31.27;;;15.07;;
22034;SDS011;11181;51.002;4.356;2023-01-20T00:56:17;38.17;;;14.90;;
22034;SDS011;11181;51.002;4.356;2023-01-20T00:58:44;34.20;;;15.43;;
22034;SDS011;11181;51.002;4.356;2023-01-20T01:01:11;37.93;;;16.50;;
22034;SDS011;11181;51.002;4.356;2023-01-20T01:03:38;42.47;;;17.70;;
22034;SDS011;11181;51.002;4.356;2023-01-20T01:06:06;37.30;;;15.83;;
22034;SDS011;11181;51.002;4.356;2023-01-20T01:08:34;41.83;;;17.60;;
22034;SDS011;11181;51.002;4.356;2023-01-20T01:11:01;38.93;;;16.73;;
22034;SDS011;11181;51.002;4.356;2023-01-20T01:13:30;38.40;;;17.70;;
22034;SDS011;11181;51.002;4.356;2023-01-20T01:15:57;40.43;;;16.60;;
22034;SDS011;11181;51.002;4.356;2023-01-20T01:18:24;40.97;;;17.03;;
22034;SDS011;11181;51.002;4.356;2023-01-20T01:20:51;35.40;;;16.10;;
22034;SDS011;11181;51.002;4.356;2023-01-20T01:23:18;35.30;;;17.00;;
22034;SDS011;11181;51.002;4.356;2023-01-20T01:25:45;44.03;;;18.80;;
22034;SDS011;11181;51.002;4.356;2023-01-20T01:28:12;45.00;;;19.07;;
22034;SDS011;11181;51.002;4.356;2023-01-20T01:30:40;40.27;;;17.73;;
22034;SDS011;11181;51.002;4.356;2023-01-20T01:33:07;41.73;;;17.50;;
22034;SDS011;11181;51.002;4.356;2023-01-20T01:35:34;40.57;;;16.37;;
22034;SDS011;11181;51.002;4.356;2023-01-20T01:38:01;44.47;;;17.97;;
22034;SDS011;11181;51.002;4.356;2023-01-20T01:40:28;41.73;;;17.57;;
22034;SDS011;11181;51.002;4.356;2023-01-20T01:42:55;42.73;;;18.53;;
22034;SDS011;11181;51.002;4.356;2023-01-20T01:45:26;36.70;;;16.80;;
22034;SDS011;11181;51.002;4.356;2023-01-20T01:48:01;36.37;;;17.37;;
22034;SDS011;11181;51.002;4.356;2023-01-20T01:50:33;45.33;;;18.00;;
22034;SDS011;11181;51.002;4.356;2023-01-20T01:53:04;36.23;;;17.20;;
22034;SDS011;11181;51.002;4.356;2023-01-20T01:55:33;34.43;;;16.03;;
22034;SDS011;11181;51.002;4.356;2023-01-20T01:58:03;39.67;;;16.30;;
22034;SDS011;11181;51.002;4.356;2023-01-20T02:00:34;34.53;;;16.17;;
22034;SDS011;11181;51.002;4.356;2023-01-20T02:03:03;40.00;;;17.30;;
22034;SDS011;11181;51.002;4.356;2023-01-20T02:05:31;39.13;;;17.13;;
22034;SDS011;11181;51.002;4.356;2023-01-20T02:07:59;36.37;;;16.80;;
22034;SDS011;11181;51.002;4.356;2023-01-20T02:10:27;37.80;;;16.10;;
22034;SDS011;11181;51.002;4.356;2023-01-20T02:12:54;35.57;;;15.43;;
22034;SDS011;11181;51.002;4.356;2023-01-20T02:15:22;36.57;;;18.57;;
22034;SDS011;11181;51.002;4.356;2023-01-20T02:17:55;34.33;;;16.60;;
22034;SDS011;11181;51.002;4.356;2023-01-20T02:20:35;33.33;;;16.37;;
22034;SDS011;11181;51.002;4.356;2023-01-20T02:23:24;30.67;;;15.53;;
22034;SDS011;11181;51.002;4.356;2023-01-20T02:26:22;35.03;;;15.93;;
22034;SDS011;11181;51.002;4.356;2023-01-20T02:29:25;36.00;;;16.50;;
22034;SDS011;11181;51.002;4.356;2023-01-20T02:32:16;36.87;;;15.60;;
22034;SDS011;11181;51.002;4.356;2023-01-20T02:34:56;35.53;;;15.70;;
22034;SDS011;11181;51.002;4.356;2023-01-20T02:37:27;35.73;;;16.60;;
22034;SDS011;11181;51.002;4.356;2023-01-20T02:40:01;36.87;;;14.73;;
22034;SDS011;11181;51.002;4.356;2023-01-20T02:42:40;34.97;;;15.67;;
22034;SDS011;11181;51.002;4.356;2023-01-20T02:45:13;34.00;;;15.10;;
22034;SDS011;11181;51.002;4.356;2023-01-20T02:47:49;40.30;;;16.77;;
22034;SDS011;11181;51.002;4.356;2023-01-20T02:50:21;37.87;;;16.50;;
22034;SDS011;11181;51.002;4.356;2023-01-20T02:52:52;38.50;;;16.30;;
22034;SDS011;11181;51.002;4.356;2023-01-20T02:55:24;36.57;;;15.60;;
22034;SDS011;11181;51.002;4.356;2023-01-20T02:57:57;36.53;;;16.37;;
22034;SDS011;11181;51.002;4.356;2023-01-20T03:00:28;34.63;;;15.37;;
22034;SDS011;11181;51.002;4.356;2023-01-20T03:03:01;34.20;;;16.20;;
22034;SDS011;11181;51.002;4.356;2023-01-20T03:05:34;34.73;;;16.90;;
22034;SDS011;11181;51.002;4.356;2023-01-20T03:08:04;35.83;;;16.40;;
22034;SDS011;11181;51.002;4.356;2023-01-20T03:10:34;34.23;;;16.27;;
22034;SDS011;11181;51.002;4.356;2023-01-20T03:13:04;36.87;;;15.67;;
22034;SDS011;11181;51.002;4.356;2023-01-20T03:15:40;39.10;;;17.93;;
22034;SDS011;11181;51.002;4.356;2023-01-20T03:18:14;37.13;;;16.30;;
22034;SDS011;11181;51.002;4.356;2023-01-20T03:20:41;49.50;;;18.07;;
22034;SDS011;11181;51.002;4.356;2023-01-20T03:23:08;40.43;;;17.83;;
22034;SDS011;11181;51.002;4.356;2023-01-20T03:25:35;34.50;;;16.03;;
22034;SDS011;11181;51.002;4.356;2023-01-20T03:28:04;40.67;;;17.40;;
22034;SDS011;11181;51.002;4.356;2023-01-20T03:30:31;34.20;;;15.70;;
22034;SDS011;11181;51.002;4.356;2023-01-20T03:32:58;38.57;;;15.00;;
22034;SDS011;11181;51.002;4.356;2023-01-20T03:35:27;35.07;;;16.10;;
22034;SDS011;11181;51.002;4.356;2023-01-20T03:37:54;32.63;;;15.57;;
22034;SDS011;11181;51.002;4.356;2023-01-20T03:40:21;37.77;;;17.70;;
22034;SDS011;11181;51.002;4.356;2023-01-20T03:42:51;29.37;;;14.77;;
22034;SDS011;11181;51.002;4.356;2023-01-20T03:45:26;33.40;;;14.57;;
22034;SDS011;11181;51.002;4.356;2023-01-20T03:48:07;40.03;;;16.20;;
22034;SDS011;11181;51.002;4.356;2023-01-20T03:50:44;30.43;;;14.43;;
22034;SDS011;11181;51.002;4.356;2023-01-20T03:53:18;31.67;;;15.97;;
22034;SDS011;11181;51.002;4.356;2023-01-20T03:55:55;28.13;;;15.17;;
22034;SDS011;11181;51.002;4.356;2023-01-20T03:58:30;32.00;;;14.77;;
22034;SDS011;11181;51.002;4.356;2023-01-20T04:01:00;33.63;;;15.47;;
22034;SDS011;11181;51.002;4.356;2023-01-20T04:03:31;29.77;;;14.87;;
22034;SDS011;11181;51.002;4.356;2023-01-20T04:06:04;39.67;;;16.03;;
22034;SDS011;11181;51.002;4.356;2023-01-20T04:08:33;30.50;;;15.27;;
22034;SDS011;11181;51.002;4.356;2023-01-20T04:11:05;37.77;;;17.53;;
22034;SDS011;11181;51.002;4.356;2023-01-20T04:13:33;31.13;;;15.23;;
22034;SDS011;11181;51.002;4.356;2023-01-20T04:16:01;28.73;;;15.87;;
22034;SDS011;11181;51.002;4.356;2023-01-20T04:18:34;31.20;;;14.73;;
22034;SDS011;11181;51.002;4.356;2023-01-20T04:21:07;32.63;;;15.77;;
22034;SDS011;11181;51.002;4.356;2023-01-20T04:23:38;32.27;;;14.50;;
22034;SDS011;11181;51.002;4.356;2023-01-20T04:26:09;29.97;;;15.40;;
22034;SDS011;11181;51.002;4.356;2023-01-20T04:28:36;30.83;;;15.03;;
22034;SDS011;11181;51.002;4.356;2023-01-20T04:31:03;31.77;;;14.40;;
22034;SDS011;11181;51.002;4.356;2023-01-20T04:33:30;32.97;;;15.33;;
22034;SDS011;11181;51.002;4.356;2023-01-20T04:35:57;31.40;;;14.60;;
22034;SDS011;11181;51.002;4.356;2023-01-20T04:38:25;29.17;;;15.17;;
22034;SDS011;11181;51.002;4.356;2023-01-20T04:40:52;32.60;;;15.57;;
22034;SDS011;11181;51.002;4.356;2023-01-20T04:43:19;30.57;;;14.93;;
22034;SDS011;11181;51.002;4.356;2023-01-20T04:45:45;27.27;;;14.47;;
22034;SDS011;11181;51.002;4.356;2023-01-20T04:48:12;30.47;;;15.63;;
22034;SDS011;11181;51.002;4.356;2023-01-20T04:50:40;31.57;;;14.30;;
22034;SDS011;11181;51.002;4.356;2023-01-20T04:53:09;31.37;;;14.90;;
22034;SDS011;11181;51.002;4.356;2023-01-20T04:55:42;32.60;;;14.67;;
22034;SDS011;11181;51.002;4.356;2023-01-20T04:58:09;30.53;;;14.30;;
22034;SDS011;11181;51.002;4.356;2023-01-20T05:00:36;29.37;;;14.63;;
22034;SDS011;11181;51.002;4.356;2023-01-20T05:03:03;30.30;;;13.80;;
22034;SDS011;11181;51.002;4.356;2023-01-20T05:05:30;27.77;;;15.53;;
22034;SDS011;11181;51.002;4.356;2023-01-20T05:07:57;27.67;;;14.07;;
22034;SDS011;11181;51.002;4.356;2023-01-20T05:10:23;28.37;;;14.40;;
22034;SDS011;11181;51.002;4.356;2023-01-20T05:12:52;30.90;;;14.60;;
22034;SDS011;11181;51.002;4.356;2023-01-20T05:15:19;34.17;;;16.40;;
22034;SDS011;11181;51.002;4.356;2023-01-20T05:17:46;29.87;;;15.33;;
22034;SDS011;11181;51.002;4.356;2023-01-20T05:20:13;30.47;;;15.97;;
22034;SDS011;11181;51.002;4.356;2023-01-20T05:22:40;31.27;;;15.40;;
22034;SDS011;11181;51.002;4.356;2023-01-20T05:25:07;30.80;;;16.67;;
22034;SDS011;11181;51.002;4.356;2023-01-20T05:27:34;29.67;;;14.90;;
22034;SDS011;11181;51.002;4.356;2023-01-20T05:30:03;30.63;;;14.93;;
22034;SDS011;11181;51.002;4.356;2023-01-20T05:32:31;30.10;;;14.83;;
22034;SDS011;11181;51.002;4.356;2023-01-20T05:34:58;34.23;;;15.90;;
22034;SDS011;11181;51.002;4.356;2023-01-20T05:37:25;37.60;;;17.30;;
22034;SDS011;11181;51.002;4.356;2023-01-20T05:39:51;29.90;;;15.73;;
22034;SDS011;11181;51.002;4.356;2023-01-20T05:42:18;28.37;;;15.17;;
22034;SDS011;11181;51.002;4.356;2023-01-20T05:44:45;31.67;;;13.93;;
22034;SDS011;11181;51.002;4.356;2023-01-20T05:47:14;28.17;;;14.33;;
22034;SDS011;11181;51.002;4.356;2023-01-20T05:49:40;25.70;;;13.63;;
22034;SDS011;11181;51.002;4.356;2023-01-20T05:52:07;31.43;;;14.03;;
22034;SDS011;11181;51.002;4.356;2023-01-20T05:54:34;30.53;;;14.67;;
22034;SDS011;11181;51.002;4.356;2023-01-20T05:57:01;27.60;;;13.77;;
22034;SDS011;11181;51.002;4.356;2023-01-20T05:59:29;35.97;;;14.77;;
22034;SDS011;11181;51.002;4.356;2023-01-20T06:01:56;31.20;;;14.57;;
22034;SDS011;11181;51.002;4.356;2023-01-20T06:04:24;29.67;;;13.60;;
22034;SDS011;11181;51.002;4.356;2023-01-20T06:06:51;31.40;;;14.90;;
22034;SDS011;11181;51.002;4.356;2023-01-20T06:09:18;31.17;;;14.67;;
22034;SDS011;11181;51.002;4.356;2023-01-20T06:11:45;29.43;;;14.53;;
22034;SDS011;11181;51.002;4.356;2023-01-20T06:14:12;33.77;;;16.23;;
22034;SDS011;11181;51.002;4.356;2023-01-20T06:16:39;31.17;;;14.80;;
22034;SDS011;11181;51.002;4.356;2023-01-20T06:19:06;30.80;;;15.30;;
22034;SDS011;11181;51.002;4.356;2023-01-20T06:21:34;34.97;;;14.97;;
22034;SDS011;11181;51.002;4.356;2023-01-20T06:24:01;27.67;;;12.80;;
22034;SDS011;11181;51.002;4.356;2023-01-20T06:26:29;30.30;;;15.27;;
22034;SDS011;11181;51.002;4.356;2023-01-20T06:28:57;26.30;;;14.13;;
22034;SDS011;11181;51.002;4.356;2023-01-20T06:31:25;25.40;;;13.70;;
22034;SDS011;11181;51.002;4.356;2023-01-20T06:33:53;31.70;;;14.30;;
22034;SDS011;11181;51.002;4.356;2023-01-20T06:36:20;27.70;;;12.60;;
22034;SDS011;11181;51.002;4.356;2023-01-20T06:38:50;26.57;;;14.80;;
22034;SDS011;11181;51.002;4.356;2023-01-20T06:41:17;27.90;;;12.77;;
22034;SDS011;11181;51.002;4.356;2023-01-20T06:43:45;25.53;;;13.10;;
22034;SDS011;11181;51.002;4.356;2023-01-20T06:46:14;25.50;;;14.30;;
22034;SDS011;11181;51.002;4.356;2023-01-20T06:48:42;29.83;;;14.83;;
22034;SDS011;11181;51.002;4.356;2023-01-20T06:51:10;31.77;;;13.87;;
22034;SDS011;11181;51.002;4.356;2023-01-20T06:53:39;28.77;;;15.27;;
22034;SDS011;11181;51.002;4.356;2023-01-20T06:56:08;28.30;;;13.87;;
22034;SDS011;11181;51.002;4.356;2023-01-20T06:58:36;25.50;;;12.50;;
22034;SDS011;11181;51.002;4.356;2023-01-20T07:01:05;36.83;;;13.63;;
22034;SDS011;11181;51.002;4.356;2023-01-20T07:03:34;37.87;;;15.37;;
22034;SDS011;11181;51.002;4.356;2023-01-20T07:06:01;31.93;;;14.50;;
22034;SDS011;11181;51.002;4.356;2023-01-20T07:08:29;27.77;;;13.97;;
22034;SDS011;11181;51.002;4.356;2023-01-20T07:10:56;34.97;;;14.80;;
22034;SDS011;11181;51.002;4.356;2023-01-20T07:13:25;31.77;;;14.70;;
22034;SDS011;11181;51.002;4.356;2023-01-20T07:15:52;30.83;;;14.47;;
22034;SDS011;11181;51.002;4.356;2023-01-20T07:18:19;29.37;;;13.10;;
22034;SDS011;11181;51.002;4.356;2023-01-20T07:20:46;29.60;;;16.10;;
22034;SDS011;11181;51.002;4.356;2023-01-20T07:23:17;32.03;;;13.93;;
22034;SDS011;11181;51.002;4.356;2023-01-20T07:25:44;31.77;;;15.43;;
22034;SDS011;11181;51.002;4.356;2023-01-20T07:28:11;31.70;;;14.93;;
22034;SDS011;11181;51.002;4.356;2023-01-20T07:30:40;27.17;;;14.47;;
22034;SDS011;11181;51.002;4.356;2023-01-20T07:33:06;30.33;;;13.87;;
22034;SDS011;11181;51.002;4.356;2023-01-20T07:35:33;30.73;;;15.47;;
22034;SDS011;11181;51.002;4.356;2023-01-20T07:38:00;29.70;;;14.93;;
22034;SDS011;11181;51.002;4.356;2023-01-20T07:40:28;28.00;;;14.93;;
22034;SDS011;11181;51.002;4.356;2023-01-20T07:42:55;30.37;;;15.03;;
22034;SDS011;11181;51.002;4.356;2023-01-20T07:45:22;29.00;;;14.77;;
22034;SDS011;11181;51.002;4.356;2023-01-20T07:47:52;31.67;;;14.77;;
22034;SDS011;11181;51.002;4.356;2023-01-20T07:50:20;25.93;;;13.73;;
22034;SDS011;11181;51.002;4.356;2023-01-20T07:52:47;29.13;;;14.20;;
22034;SDS011;11181;51.002;4.356;2023-01-20T07:55:14;33.93;;;15.57;;
22034;SDS011;11181;51.002;4.356;2023-01-20T07:57:42;27.77;;;13.40;;
22034;SDS011;11181;51.002;4.356;2023-01-20T08:00:09;25.63;;;14.37;;
22034;SDS011;11181;51.002;4.356;2023-01-20T08:02:37;29.90;;;14.90;;
22034;SDS011;11181;51.002;4.356;2023-01-20T08:05:06;24.63;;;12.83;;
22034;SDS011;11181;51.002;4.356;2023-01-20T08:07:33;29.70;;;13.07;;
22034;SDS011;11181;51.002;4.356;2023-01-20T08:10:00;30.63;;;13.77;;
22034;SDS011;11181;51.002;4.356;2023-01-20T08:12:27;34.77;;;14.10;;
22034;SDS011;11181;51.002;4.356;2023-01-20T08:14:54;25.17;;;12.67;;
22034;SDS011;11181;51.002;4.356;2023-01-20T08:17:21;33.33;;;13.80;;
22034;SDS011;11181;51.002;4.356;2023-01-20T08:19:48;31.13;;;15.67;;
22034;SDS011;11181;51.002;4.356;2023-01-20T08:22:16;28.47;;;14.47;;
22034;SDS011;11181;51.002;4.356;2023-01-20T08:24:43;25.63;;;13.03;;
22034;SDS011;11181;51.002;4.356;2023-01-20T08:27:10;28.90;;;14.77;;
22034;SDS011;11181;51.002;4.356;2023-01-20T08:29:37;24.70;;;12.73;;
22034;SDS011;11181;51.002;4.356;2023-01-20T08:32:04;29.60;;;13.87;;
22034;SDS011;11181;51.002;4.356;2023-01-20T08:34:32;22.80;;;13.00;;
22034;SDS011;11181;51.002;4.356;2023-01-20T08:36:59;24.70;;;13.33;;
22034;SDS011;11181;51.002;4.356;2023-01-20T08:39:27;24.13;;;13.00;;
22034;SDS011;11181;51.002;4.356;2023-01-20T08:41:54;22.83;;;12.40;;
22034;SDS011;11181;51.002;4.356;2023-01-20T08:44:21;23.57;;;14.10;;
22034;SDS011;11181;51.002;4.356;2023-01-20T08:46:48;23.77;;;14.00;;
22034;SDS011;11181;51.002;4.356;2023-01-20T08:49:16;24.27;;;11.63;;
22034;SDS011;11181;51.002;4.356;2023-01-20T08:51:45;25.43;;;12.23;;
22034;SDS011;11181;51.002;4.356;2023-01-20T08:54:15;28.23;;;12.93;;
22034;SDS011;11181;51.002;4.356;2023-01-20T08:56:43;24.80;;;12.37;;
22034;SDS011;11181;51.002;4.356;2023-01-20T08:59:10;26.20;;;12.60;;
22034;SDS011;11181;51.002;4.356;2023-01-20T09:01:37;24.73;;;12.33;;
22034;SDS011;11181;51.002;4.356;2023-01-20T09:04:05;28.33;;;13.03;;
22034;SDS011;11181;51.002;4.356;2023-01-20T09:06:36;22.97;;;12.20;;
22034;SDS011;11181;51.002;4.356;2023-01-20T09:09:04;24.43;;;12.53;;
22034;SDS011;11181;51.002;4.356;2023-01-20T09:11:31;24.33;;;12.17;;
22034;SDS011;11181;51.002;4.356;2023-01-20T09:14:00;23.20;;;10.93;;
22034;SDS011;11181;51.002;4.356;2023-01-20T09:16:27;24.47;;;12.13;;
22034;SDS011;11181;51.002;4.356;2023-01-20T09:18:54;23.93;;;11.30;;
22034;SDS011;11181;51.002;4.356;2023-01-20T09:21:22;19.57;;;10.97;;
22034;SDS011;11181;51.002;4.356;2023-01-20T09:23:49;23.03;;;10.67;;
22034;SDS011;11181;51.002;4.356;2023-01-20T09:26:16;21.67;;;10.33;;
22034;SDS011;11181;51.002;4.356;2023-01-20T09:28:43;21.17;;;10.77;;
22034;SDS011;11181;51.002;4.356;2023-01-20T09:31:12;23.20;;;11.00;;
22034;SDS011;11181;51.002;4.356;2023-01-20T09:33:39;21.07;;;10.97;;
22034;SDS011;11181;51.002;4.356;2023-01-20T09:36:07;20.53;;;9.40;;
22034;SDS011;11181;51.002;4.356;2023-01-20T09:38:36;18.17;;;10.90;;
22034;SDS011;11181;51.002;4.356;2023-01-20T09:41:25;18.53;;;8.77;;
22034;SDS011;11181;51.002;4.356;2023-01-20T09:44:16;19.60;;;9.40;;
22034;SDS011;11181;51.002;4.356;2023-01-20T09:47:00;17.77;;;9.23;;
22034;SDS011;11181;51.002;4.356;2023-01-20T09:49:49;19.10;;;9.90;;
22034;SDS011;11181;51.002;4.356;2023-01-20T09:52:43;21.57;;;10.23;;
22034;SDS011;11181;51.002;4.356;2023-01-20T09:55:30;20.47;;;8.73;;
22034;SDS011;11181;51.002;4.356;2023-01-20T09:58:05;17.67;;;9.20;;
22034;SDS011;11181;51.002;4.356;2023-01-20T10:00:41;16.33;;;8.70;;
22034;SDS011;11181;51.002;4.356;2023-01-20T10:03:14;17.97;;;10.53;;
22034;SDS011;11181;51.002;4.356;2023-01-20T10:05:46;22.20;;;10.17;;
22034;SDS011;11181;51.002;4.356;2023-01-20T10:08:17;14.37;;;9.37;;
22034;SDS011;11181;51.002;4.356;2023-01-20T10:10:50;16.47;;;8.87;;
22034;SDS011;11181;51.002;4.356;2023-01-20T10:13:23;16.53;;;9.33;;
22034;SDS011;11181;51.002;4.356;2023-01-20T10:15:56;16.50;;;8.20;;
22034;SDS011;11181;51.002;4.356;2023-01-20T10:18:34;15.20;;;9.17;;
22034;SDS011;11181;51.002;4.356;2023-01-20T10:21:05;19.23;;;9.17;;
22034;SDS011;11181;51.002;4.356;2023-01-20T10:23:40;18.00;;;8.53;;
22034;SDS011;11181;51.002;4.356;2023-01-20T10:26:14;21.13;;;8.10;;
22034;SDS011;11181;51.002;4.356;2023-01-20T10:28:48;17.13;;;8.60;;
22034;SDS011;11181;51.002;4.356;2023-01-20T10:31:21;14.97;;;7.57;;
22034;SDS011;11181;51.002;4.356;2023-01-20T10:33:53;14.67;;;7.53;;
22034;SDS011;11181;51.002;4.356;2023-01-20T10:36:25;13.30;;;6.90;;
22034;SDS011;11181;51.002;4.356;2023-01-20T10:38:56;15.00;;;8.47;;
22034;SDS011;11181;51.002;4.356;2023-01-20T10:41:28;11.43;;;8.10;;
22034;SDS011;11181;51.002;4.356;2023-01-20T10:44:01;12.83;;;7.77;;
22034;SDS011;11181;51.002;4.356;2023-01-20T10:46:40;16.83;;;7.80;;
22034;SDS011;11181;51.002;4.356;2023-01-20T10:49:33;13.97;;;7.23;;
22034;SDS011;11181;51.002;4.356;2023-01-20T10:52:20;19.43;;;8.03;;
22034;SDS011;11181;51.002;4.356;2023-01-20T10:54:53;11.43;;;6.60;;
22034;SDS011;11181;51.002;4.356;2023-01-20T10:57:31;13.90;;;7.23;;
22034;SDS011;11181;51.002;4.356;2023-01-20T11:00:00;17.10;;;6.77;;
22034;SDS011;11181;51.002;4.356;2023-01-20T11:02:31;13.77;;;7.17;;
22034;SDS011;11181;51.002;4.356;2023-01-20T11:05:15;16.47;;;7.73;;
22034;SDS011;11181;51.002;4.356;2023-01-20T11:07:45;10.33;;;6.10;;
22034;SDS011;11181;51.002;4.356;2023-01-20T11:10:13;12.97;;;6.80;;
22034;SDS011;11181;51.002;4.356;2023-01-20T11:12:41;18.43;;;7.83;;
22034;SDS011;11181;51.002;4.356;2023-01-20T11:15:15;15.40;;;6.37;;
22034;SDS011;11181;51.002;4.356;2023-01-20T11:17:43;11.43;;;6.53;;
22034;SDS011;11181;51.002;4.356;2023-01-20T11:20:16;10.20;;;6.20;;
22034;SDS011;11181;51.002;4.356;2023-01-20T11:22:46;10.77;;;6.53;;
22034;SDS011;11181;51.002;4.356;2023-01-20T11:25:21;10.43;;;6.70;;
22034;SDS011;11181;51.002;4.356;2023-01-20T11:27:50;10.87;;;6.10;;
22034;SDS011;11181;51.002;4.356;2023-01-20T11:30:20;9.43;;;5.20;;
22034;SDS011;11181;51.002;4.356;2023-01-20T11:33:05;17.13;;;6.43;;
22034;SDS011;11181;51.002;4.356;2023-01-20T11:35:35;15.13;;;5.97;;
22034;SDS011;11181;51.002;4.356;2023-01-20T11:40:50;13.23;;;6.87;;
22034;SDS011;11181;51.002;4.356;2023-01-20T11:43:26;9.10;;;5.67;;
22034;SDS011;11181;51.002;4.356;2023-01-20T11:46:08;16.03;;;5.70;;
22034;SDS011;11181;51.002;4.356;2023-01-20T11:48:45;11.83;;;6.07;;
22034;SDS011;11181;51.002;4.356;2023-01-20T11:51:19;12.77;;;6.10;;
22034;SDS011;11181;51.002;4.356;2023-01-20T11:53:49;16.67;;;6.17;;
22034;SDS011;11181;51.002;4.356;2023-01-20T11:56:18;11.50;;;5.70;;
22034;SDS011;11181;51.002;4.356;2023-01-20T11:58:49;10.20;;;5.87;;
22034;SDS011;11181;51.002;4.356;2023-01-20T12:01:23;12.47;;;5.47;;
22034;SDS011;11181;51.002;4.356;2023-01-20T12:04:04;10.67;;;6.43;;
22034;SDS011;11181;51.002;4.356;2023-01-20T12:06:50;12.57;;;5.90;;
22034;SDS011;11181;51.002;4.356;2023-01-20T12:09:22;10.90;;;5.70;;
22034;SDS011;11181;51.002;4.356;2023-01-20T12:11:55;10.70;;;5.80;;
22034;SDS011;11181;51.002;4.356;2023-01-20T12:14:27;7.80;;;5.43;;
22034;SDS011;11181;51.002;4.356;2023-01-20T12:17:03;7.77;;;5.87;;
22034;SDS011;11181;51.002;4.356;2023-01-20T12:19:52;7.60;;;5.33;;
22034;SDS011;11181;51.002;4.356;2023-01-20T12:22:33;8.07;;;6.03;;
22034;SDS011;11181;51.002;4.356;2023-01-20T12:25:09;8.67;;;6.00;;
22034;SDS011;11181;51.002;4.356;2023-01-20T12:27:45;8.57;;;5.93;;
22034;SDS011;11181;51.002;4.356;2023-01-20T12:33:11;6.77;;;5.67;;
22034;SDS011;11181;51.002;4.356;2023-01-20T12:35:46;10.40;;;6.23;;
22034;SDS011;11181;51.002;4.356;2023-01-20T12:38:38;8.90;;;4.67;;
22034;SDS011;11181;51.002;4.356;2023-01-20T12:41:15;9.67;;;6.30;;
22034;SDS011;11181;51.002;4.356;2023-01-20T12:43:55;10.00;;;6.10;;
22034;SDS011;11181;51.002;4.356;2023-01-20T12:46:31;10.47;;;6.07;;
22034;SDS011;11181;51.002;4.356;2023-01-20T12:49:10;9.90;;;6.37;;
22034;SDS011;11181;51.002;4.356;2023-01-20T12:52:05;8.33;;;6.93;;
22034;SDS011;11181;51.002;4.356;2023-01-20T12:57:47;8.43;;;5.63;;
22034;SDS011;11181;51.002;4.356;2023-01-20T13:00:36;8.43;;;7.10;;
22034;SDS011;11181;51.002;4.356;2023-01-20T13:03:18;10.50;;;7.50;;
22034;SDS011;11181;51.002;4.356;2023-01-20T13:06:08;8.53;;;6.53;;
22034;SDS011;11181;51.002;4.356;2023-01-20T13:09:00;6.87;;;6.17;;
22034;SDS011;11181;51.002;4.356;2023-01-20T13:11:44;11.20;;;6.17;;
22034;SDS011;11181;51.002;4.356;2023-01-20T13:14:23;9.00;;;6.60;;
22034;SDS011;11181;51.002;4.356;2023-01-20T13:16:56;9.87;;;6.43;;
22034;SDS011;11181;51.002;4.356;2023-01-20T13:19:29;8.93;;;6.47;;
22034;SDS011;11181;51.002;4.356;2023-01-20T13:22:00;8.67;;;6.30;;
22034;SDS011;11181;51.002;4.356;2023-01-20T13:24:35;10.43;;;5.90;;
22034;SDS011;11181;51.002;4.356;2023-01-20T13:27:03;9.80;;;6.60;;
22034;SDS011;11181;51.002;4.356;2023-01-20T13:29:41;9.37;;;7.70;;
22034;SDS011;11181;51.002;4.356;2023-01-20T13:32:27;8.40;;;6.63;;
22034;SDS011;11181;51.002;4.356;2023-01-20T13:34:56;8.10;;;7.30;;
22034;SDS011;11181;51.002;4.356;2023-01-20T13:37:25;7.83;;;6.63;;
22034;SDS011;11181;51.002;4.356;2023-01-20T13:39:54;11.63;;;6.23;;
22034;SDS011;11181;51.002;4.356;2023-01-20T13:42:29;7.57;;;4.10;;
22034;SDS011;11181;51.002;4.356;2023-01-20T13:45:23;6.43;;;3.37;;
22034;SDS011;11181;51.002;4.356;2023-01-20T13:50:48;6.80;;;3.00;;
22034;SDS011;11181;51.002;4.356;2023-01-20T13:53:25;10.47;;;3.80;;
22034;SDS011;11181;51.002;4.356;2023-01-20T13:55:59;6.27;;;2.63;;
22034;SDS011;11181;51.002;4.356;2023-01-20T13:58:29;11.67;;;2.47;;
22034;SDS011;11181;51.002;4.356;2023-01-20T14:00:58;3.80;;;1.67;;
22034;SDS011;11181;51.002;4.356;2023-01-20T14:03:27;3.10;;;1.10;;
22034;SDS011;11181;51.002;4.356;2023-01-20T14:05:56;4.57;;;1.63;;
22034;SDS011;11181;51.002;4.356;2023-01-20T14:08:25;6.30;;;1.60;;
22034;SDS011;11181;51.002;4.356;2023-01-20T14:11:02;7.23;;;1.50;;
22034;SDS011;11181;51.002;4.356;2023-01-20T14:13:34;11.00;;;2.20;;
22034;SDS011;11181;51.002;4.356;2023-01-20T14:16:01;3.80;;;1.67;;
22034;SDS011;11181;51.002;4.356;2023-01-20T14:18:28;7.30;;;2.07;;
22034;SDS011;11181;51.002;4.356;2023-01-20T14:20:56;7.30;;;2.00;;
22034;SDS011;11181;51.002;4.356;2023-01-20T14:23:29;5.30;;;2.20;;
22034;SDS011;11181;51.002;4.356;2023-01-20T14:25:58;4.90;;;2.47;;
22034;SDS011;11181;51.002;4.356;2023-01-20T14:28:27;8.23;;;2.00;;
22034;SDS011;11181;51.002;4.356;2023-01-20T14:33:55;7.77;;;2.50;;
22034;SDS011;11181;51.002;4.356;2023-01-20T14:36:24;3.63;;;1.90;;
22034;SDS011;11181;51.002;4.356;2023-01-20T14:38:55;6.57;;;2.03;;
22034;SDS011;11181;51.002;4.356;2023-01-20T14:41:24;8.90;;;2.33;;
22034;SDS011;11181;51.002;4.356;2023-01-20T14:43:56;5.30;;;2.30;;
22034;SDS011;11181;51.002;4.356;2023-01-20T14:46:25;6.93;;;2.93;;
22034;SDS011;11181;51.002;4.356;2023-01-20T14:48:53;6.53;;;2.23;;
22034;SDS011;11181;51.002;4.356;2023-01-20T14:51:21;20.70;;;4.43;;
22034;SDS011;11181;51.002;4.356;2023-01-20T14:56:48;8.60;;;2.30;;
22034;SDS011;11181;51.002;4.356;2023-01-20T14:59:17;8.00;;;2.00;;
22034;SDS011;11181;51.002;4.356;2023-01-20T15:01:50;7.00;;;2.20;;
22034;SDS011;11181;51.002;4.356;2023-01-20T15:04:19;5.37;;;2.00;;
22034;SDS011;11181;51.002;4.356;2023-01-20T15:06:50;11.20;;;3.30;;
22034;SDS011;11181;51.002;4.356;2023-01-20T15:09:25;7.13;;;3.43;;